Time;durP1;ratioP1;P1;durP2;ratioP2;P2;SDS_P1;SDS_P2;PMS_P1;PMS_P2;Temp;Humidity;BMP_temperature;BMP_pressure;BME280_temperature;BME280_humidity;BME280_pressure;Samples;Min_cycle;Max_cycle;Signal;HPM_P1;HPM_P2
2023/12/09 00:01:43;;;;;;;33.30;19.60;;;5.10;99.90;;;;;;5036882;28;20238;-63
2023/12/09 00:04:10;;;;;;;33.70;20.65;;;5.10;99.90;;;;;;5037052;28;20209;-63
2023/12/09 00:06:37;;;;;;;39.45;21.45;;;5.10;99.90;;;;;;5035514;28;20198;-63
2023/12/09 00:09:04;;;;;;;38.85;20.63;;;5.10;99.90;;;;;;5034710;28;20202;-63
2023/12/09 00:11:30;;;;;;;37.95;21.70;;;5.20;99.90;;;;;;5033718;28;20719;-63
2023/12/09 00:14:03;;;;;;;40.05;20.10;;;5.20;99.90;;;;;;5034223;28;20316;-63
2023/12/09 00:16:30;;;;;;;33.47;20.10;;;5.20;99.90;;;;;;5034267;28;20558;-63
2023/12/09 00:18:59;;;;;;;36.40;19.48;;;5.20;99.90;;;;;;5034434;28;20198;-63
2023/12/09 00:21:26;;;;;;;34.30;21.08;;;5.20;99.90;;;;;;5033907;28;20207;-63
2023/12/09 00:23:52;;;;;;;34.25;19.98;;;5.20;99.90;;;;;;5034087;28;20209;-63
2023/12/09 00:26:19;;;;;;;32.25;19.45;;;5.20;99.90;;;;;;5033958;28;20202;-62
2023/12/09 00:28:46;;;;;;;28.35;18.23;;;5.20;99.90;;;;;;5036629;28;20202;-63
2023/12/09 00:31:12;;;;;;;33.05;18.98;;;5.20;99.90;;;;;;5038184;28;20213;-62
2023/12/09 00:33:39;;;;;;;29.40;18.38;;;5.20;99.90;;;;;;5043366;28;20225;-64
2023/12/09 00:36:08;;;;;;;30.33;18.73;;;5.20;99.90;;;;;;5043946;28;20198;-64
2023/12/09 00:38:35;;;;;;;34.38;18.67;;;5.20;99.90;;;;;;5043326;28;20229;-62
2023/12/09 00:41:02;;;;;;;32.85;20.00;;;5.20;99.90;;;;;;5039230;28;20206;-64
2023/12/09 00:43:29;;;;;;;26.45;17.15;;;5.20;99.90;;;;;;5038608;28;20218;-62
2023/12/09 00:45:54;;;;;;;33.22;17.80;;;5.20;99.90;;;;;;5038140;28;20210;-64
2023/12/09 00:48:22;;;;;;;29.13;16.60;;;5.20;99.90;;;;;;5040660;28;20208;-63
2023/12/09 00:50:48;;;;;;;27.40;15.82;;;5.20;99.90;;;;;;5042208;28;20233;-64
2023/12/09 00:53:16;;;;;;;30.27;17.50;;;5.20;99.90;;;;;;5037917;28;20228;-63
2023/12/09 00:55:43;;;;;;;29.92;18.40;;;5.20;99.90;;;;;;5038896;28;20209;-63
2023/12/09 00:58:10;;;;;;;27.65;17.30;;;5.10;99.90;;;;;;5038308;28;20222;-63
2023/12/09 01:00:37;;;;;;;26.90;17.35;;;5.10;99.90;;;;;;5037998;28;20229;-63
2023/12/09 01:03:03;;;;;;;30.90;18.30;;;5.10;99.90;;;;;;5037487;28;20225;-62
2023/12/09 01:05:30;;;;;;;28.45;17.90;;;5.10;99.90;;;;;;5037902;28;20206;-63
2023/12/09 01:07:57;;;;;;;29.45;18.15;;;5.10;99.90;;;;;;5037304;28;20198;-63
2023/12/09 01:10:25;;;;;;;30.35;16.77;;;5.00;99.90;;;;;;5037185;28;20209;-63
2023/12/09 01:12:52;;;;;;;26.33;16.65;;;5.00;99.90;;;;;;5037474;28;20226;-63
2023/12/09 01:15:18;;;;;;;28.55;17.73;;;4.90;99.90;;;;;;5037437;28;20206;-62
2023/12/09 01:17:45;;;;;;;29.48;18.40;;;4.90;99.90;;;;;;5036766;28;20222;-63
2023/12/09 01:20:14;;;;;;;26.30;15.65;;;4.90;99.90;;;;;;5036652;28;20225;-63
2023/12/09 01:22:40;;;;;;;24.50;17.50;;;4.90;99.90;;;;;;5036571;28;20222;-63
2023/12/09 01:25:08;;;;;;;30.70;17.45;;;4.90;99.90;;;;;;5036747;28;20203;-64
2023/12/09 01:27:36;;;;;;;32.10;18.52;;;4.90;99.90;;;;;;5037336;28;20205;-63
2023/12/09 01:30:04;;;;;;;26.63;15.98;;;4.90;99.90;;;;;;5037968;28;20687;-65
2023/12/09 01:32:30;;;;;;;27.77;15.57;;;4.90;99.90;;;;;;5038170;28;20234;-63
2023/12/09 01:34:57;;;;;;;24.58;15.50;;;4.90;99.90;;;;;;5038049;28;20206;-63
2023/12/09 01:37:24;;;;;;;26.52;16.30;;;4.90;99.90;;;;;;5037473;28;20588;-63
2023/12/09 01:39:51;;;;;;;29.38;18.10;;;4.90;99.90;;;;;;5037244;28;20210;-63
2023/12/09 01:42:17;;;;;;;25.77;15.43;;;4.90;99.90;;;;;;5037436;28;20690;-64
2023/12/09 01:44:45;;;;;;;23.77;15.65;;;4.90;99.90;;;;;;5036489;28;20202;-63
2023/12/09 01:47:13;;;;;;;24.08;15.75;;;4.90;99.90;;;;;;5037214;28;20199;-63
2023/12/09 01:49:39;;;;;;;27.45;16.30;;;4.90;99.90;;;;;;5039374;28;20198;-63
2023/12/09 01:52:06;;;;;;;21.48;14.60;;;4.90;99.90;;;;;;5040265;28;20600;-64
2023/12/09 01:54:34;;;;;;;21.00;15.25;;;4.90;99.90;;;;;;5041065;28;20202;-63
2023/12/09 01:57:01;;;;;;;22.70;15.75;;;4.90;99.90;;;;;;5040504;28;20199;-64
2023/12/09 01:59:28;;;;;;;22.63;14.85;;;4.90;99.90;;;;;;5040192;28;20296;-64
2023/12/09 02:01:56;;;;;;;27.35;16.98;;;4.90;99.90;;;;;;5039856;28;20265;-63
2023/12/09 02:04:23;;;;;;;20.65;14.70;;;4.90;99.90;;;;;;5042155;28;20187;-63
2023/12/09 02:06:49;;;;;;;25.15;15.40;;;4.90;99.90;;;;;;5041921;28;20214;-64
2023/12/09 02:09:18;;;;;;;19.95;14.93;;;4.90;99.90;;;;;;5045305;28;20195;-63
2023/12/09 02:11:52;;;;;;;21.02;14.50;;;4.90;99.90;;;;;;5044751;28;20261;-64
2023/12/09 02:14:27;;;;;;;27.08;15.45;;;4.90;99.90;;;;;;5044497;28;20186;-63
2023/12/09 02:17:04;;;;;;;21.65;14.60;;;4.90;99.90;;;;;;5038613;28;20193;-63
2023/12/09 02:19:31;;;;;;;20.55;14.02;;;4.90;99.90;;;;;;5035775;28;20202;-63
2023/12/09 02:22:03;;;;;;;26.58;15.40;;;4.90;99.90;;;;;;5035354;28;20226;-63
2023/12/09 02:24:32;;;;;;;21.60;13.57;;;4.90;99.90;;;;;;5035204;28;20620;-62
2023/12/09 02:27:08;;;;;;;21.77;14.35;;;4.90;99.90;;;;;;5035868;28;20226;-63
2023/12/09 02:29:42;;;;;;;22.90;14.30;;;5.00;99.90;;;;;;5035568;28;20671;-62
2023/12/09 02:32:10;;;;;;;20.83;14.00;;;5.00;99.90;;;;;;5036436;28;20226;-63
2023/12/09 02:34:40;;;;;;;22.42;13.35;;;5.00;99.90;;;;;;5037185;28;20202;-64
2023/12/09 02:37:09;;;;;;;18.40;13.43;;;5.00;99.90;;;;;;5035807;28;20194;-63
2023/12/09 02:39:38;;;;;;;23.10;14.68;;;5.00;99.90;;;;;;5035572;28;20222;-63
2023/12/09 02:42:06;;;;;;;23.00;15.98;;;5.00;99.90;;;;;;5038852;28;20580;-63
2023/12/09 02:44:34;;;;;;;17.50;12.07;;;5.00;99.90;;;;;;5036122;28;20203;-63
2023/12/09 02:47:00;;;;;;;18.80;14.15;;;5.00;99.90;;;;;;5035860;28;20209;-63
2023/12/09 02:49:27;;;;;;;20.90;13.05;;;5.00;99.90;;;;;;5037884;28;20213;-63
2023/12/09 02:51:54;;;;;;;23.58;15.02;;;5.00;99.90;;;;;;5038147;28;20592;-63
2023/12/09 02:54:20;;;;;;;23.92;15.07;;;5.00;99.90;;;;;;5037274;28;20775;-62
2023/12/09 02:56:48;;;;;;;17.67;12.45;;;5.00;99.90;;;;;;5036545;28;20203;-63
2023/12/09 02:59:15;;;;;;;21.48;14.07;;;5.00;99.90;;;;;;5035834;28;20221;-63
2023/12/09 03:01:42;;;;;;;19.92;12.38;;;5.00;99.90;;;;;;5035389;28;20226;-63
2023/12/09 03:04:09;;;;;;;26.48;14.45;;;5.00;99.90;;;;;;5034929;28;20198;-62
2023/12/09 03:06:35;;;;;;;22.90;15.35;;;5.00;99.90;;;;;;5038367;28;20205;-64
2023/12/09 03:09:03;;;;;;;19.83;13.35;;;5.00;99.90;;;;;;5044002;28;20213;-64
2023/12/09 03:11:29;;;;;;;18.20;12.20;;;5.00;99.90;;;;;;5037959;28;20226;-63
2023/12/09 03:13:57;;;;;;;24.08;14.23;;;5.00;99.90;;;;;;5036022;28;20240;-63
2023/12/09 03:16:24;;;;;;;20.13;13.02;;;5.00;99.90;;;;;;5035154;28;20556;-62
2023/12/09 03:18:51;;;;;;;19.52;13.40;;;4.90;99.90;;;;;;5035326;28;20225;-62
2023/12/09 03:21:18;;;;;;;17.75;11.20;;;4.90;99.90;;;;;;5034487;28;20206;-64
2023/12/09 03:23:45;;;;;;;17.58;11.98;;;4.90;99.90;;;;;;5036418;28;20202;-64
2023/12/09 03:26:15;;;;;;;19.60;13.07;;;5.00;99.90;;;;;;5035315;28;20206;-62
2023/12/09 03:28:42;;;;;;;19.33;11.98;;;5.00;99.90;;;;;;5035869;28;20194;-63
2023/12/09 03:31:12;;;;;;;18.52;14.57;;;4.90;99.90;;;;;;5034641;28;20579;-63
2023/12/09 03:33:39;;;;;;;18.33;13.10;;;5.00;99.90;;;;;;5035002;28;20203;-63
2023/12/09 03:36:07;;;;;;;17.52;13.07;;;5.00;99.90;;;;;;5034345;28;20199;-63
2023/12/09 03:38:34;;;;;;;18.00;12.38;;;5.00;99.90;;;;;;5034567;28;20222;-62
2023/12/09 03:41:01;;;;;;;17.77;11.45;;;5.00;99.90;;;;;;5034362;28;20664;-63
2023/12/09 03:43:27;;;;;;;15.23;10.52;;;5.10;99.90;;;;;;5034548;28;20308;-63
2023/12/09 03:45:53;;;;;;;16.45;11.60;;;5.10;99.90;;;;;;5033998;28;20547;-63
2023/12/09 03:48:21;;;;;;;17.90;10.80;;;5.10;99.90;;;;;;5034343;28;20197;-63
2023/12/09 03:50:48;;;;;;;14.93;11.20;;;5.10;99.90;;;;;;5034161;28;20206;-63
2023/12/09 03:53:15;;;;;;;17.42;12.52;;;5.10;99.90;;;;;;5033992;28;20229;-64
2023/12/09 03:55:42;;;;;;;18.35;11.77;;;5.10;99.90;;;;;;5034216;28;20210;-63
2023/12/09 03:58:08;;;;;;;15.88;11.60;;;5.10;99.90;;;;;;5033726;28;20305;-63
2023/12/09 04:00:35;;;;;;;16.58;11.13;;;5.10;99.90;;;;;;5033952;28;20218;-63
2023/12/09 04:03:02;;;;;;;17.85;11.88;;;5.00;99.90;;;;;;5034078;28;20230;-62
2023/12/09 04:05:30;;;;;;;15.30;11.35;;;5.00;99.90;;;;;;5034229;28;20298;-64
2023/12/09 04:07:57;;;;;;;15.27;11.45;;;5.00;99.90;;;;;;5033928;28;20549;-63
2023/12/09 04:12:45;;;;;;;15.80;10.00;;;5.00;99.90;;;;;;5091273;27;20623;-62
2023/12/09 04:15:11;;;;;;;19.80;11.40;;;5.00;99.90;;;;;;5091428;28;20212;-62
2023/12/09 04:17:39;;;;;;;17.45;11.38;;;5.00;99.90;;;;;;5090878;28;20222;-63
2023/12/09 04:20:08;;;;;;;15.50;10.85;;;4.90;99.90;;;;;;5091237;28;20295;-62
2023/12/09 04:22:37;;;;;;;18.48;11.25;;;4.90;99.90;;;;;;5091254;28;20266;-62
2023/12/09 04:25:05;;;;;;;15.57;10.70;;;4.90;99.90;;;;;;5092550;28;20200;-63
2023/12/09 04:27:32;;;;;;;22.10;12.10;;;4.90;99.90;;;;;;5091040;28;20211;-63
2023/12/09 04:30:00;;;;;;;16.40;10.30;;;4.90;99.90;;;;;;5090443;28;20724;-63
2023/12/09 04:32:29;;;;;;;13.80;10.65;;;4.90;99.90;;;;;;5090526;28;20220;-64
2023/12/09 04:34:56;;;;;;;15.48;10.65;;;4.90;99.90;;;;;;5090945;28;20232;-63
2023/12/09 04:37:23;;;;;;;13.82;10.57;;;4.80;99.90;;;;;;5090981;28;20600;-63
2023/12/09 04:39:50;;;;;;;14.07;9.63;;;4.80;99.90;;;;;;5091064;28;20200;-63
2023/12/09 04:42:18;;;;;;;17.67;12.15;;;4.70;99.90;;;;;;5090606;28;20706;-62
2023/12/09 04:44:45;;;;;;;15.82;12.10;;;4.70;99.90;;;;;;5091043;28;20216;-63
2023/12/09 04:47:13;;;;;;;17.20;10.70;;;4.60;99.90;;;;;;5093992;28;20205;-63
2023/12/09 04:49:40;;;;;;;17.42;11.68;;;4.60;99.90;;;;;;5095420;28;20197;-64
2023/12/09 04:52:07;;;;;;;15.15;10.43;;;4.50;99.90;;;;;;5093625;28;20228;-63
2023/12/09 04:54:33;;;;;;;18.45;11.50;;;4.50;99.90;;;;;;5095570;28;20201;-63
2023/12/09 04:57:00;;;;;;;18.48;11.35;;;4.50;99.90;;;;;;5095758;28;20207;-63
2023/12/09 04:59:27;;;;;;;19.20;11.10;;;4.40;99.90;;;;;;5091100;28;20689;-63
2023/12/09 05:01:54;;;;;;;19.00;10.95;;;4.50;99.90;;;;;;5091702;28;20235;-63
2023/12/09 05:04:22;;;;;;;18.27;13.05;;;4.50;99.90;;;;;;5090234;28;20200;-62
2023/12/09 05:06:49;;;;;;;16.75;10.82;;;4.40;99.90;;;;;;5090862;28;20262;-63
2023/12/09 05:09:15;;;;;;;19.10;11.57;;;4.40;99.90;;;;;;5094083;28;20231;-62
2023/12/09 05:11:42;;;;;;;15.13;11.68;;;4.40;99.90;;;;;;5092139;28;20232;-62
2023/12/09 05:14:09;;;;;;;17.95;11.48;;;4.40;99.90;;;;;;5091302;28;20207;-62
2023/12/09 05:16:36;;;;;;;18.92;11.45;;;4.40;99.90;;;;;;5091158;28;20204;-63
2023/12/09 05:19:03;;;;;;;19.15;11.00;;;4.40;99.90;;;;;;5089454;28;20197;-62
2023/12/09 05:21:31;;;;;;;17.02;12.20;;;4.40;99.90;;;;;;5090333;28;20268;-63
2023/12/09 05:23:58;;;;;;;19.88;12.82;;;4.40;99.90;;;;;;5076571;28;20693;-63
2023/12/09 05:26:26;;;;;;;19.70;12.20;;;4.40;99.90;;;;;;5075938;28;20377;-63
2023/12/09 05:28:54;;;;;;;17.23;10.80;;;4.40;99.90;;;;;;5076137;28;20611;-64
2023/12/09 05:31:21;;;;;;;17.77;10.40;;;4.40;99.90;;;;;;5075512;28;20217;-63
2023/12/09 05:33:48;;;;;;;15.18;10.95;;;4.40;99.90;;;;;;5075989;28;20205;-63
2023/12/09 05:36:15;;;;;;;15.63;9.70;;;4.40;99.90;;;;;;5076104;28;20208;-63
2023/12/09 05:38:44;;;;;;;20.63;10.70;;;4.50;99.90;;;;;;5078925;28;20201;-64
2023/12/09 05:41:11;;;;;;;15.95;10.95;;;4.50;99.90;;;;;;5082138;28;20201;-64
2023/12/09 05:43:38;;;;;;;14.45;9.57;;;4.50;99.90;;;;;;5076911;28;20713;-62
2023/12/09 05:46:05;;;;;;;20.70;10.13;;;4.50;99.90;;;;;;5075724;28;20201;-63
2023/12/09 05:48:33;;;;;;;15.32;9.35;;;4.50;99.90;;;;;;5075737;28;20197;-63
2023/12/09 05:50:59;;;;;;;15.68;9.48;;;4.50;99.90;;;;;;5075406;28;20197;-63
2023/12/09 05:53:26;;;;;;;18.15;10.77;;;4.50;99.90;;;;;;5075569;28;20225;-62
2023/12/09 05:55:54;;;;;;;14.73;9.82;;;4.40;99.90;;;;;;5075553;28;20201;-63
2023/12/09 05:58:21;;;;;;;12.15;9.27;;;4.40;99.90;;;;;;5075735;28;20201;-63
2023/12/09 06:00:48;;;;;;;15.65;8.90;;;4.40;99.90;;;;;;5075367;28;20216;-63
2023/12/09 06:03:14;;;;;;;13.50;9.23;;;4.40;99.90;;;;;;5076594;28;20698;-62
2023/12/09 06:05:41;;;;;;;18.23;10.80;;;4.30;99.90;;;;;;5075846;28;20197;-62
2023/12/09 06:08:08;;;;;;;17.95;10.65;;;4.30;99.90;;;;;;5075681;28;20204;-63
2023/12/09 06:10:35;;;;;;;14.02;9.32;;;4.30;99.90;;;;;;5074995;28;20556;-62
2023/12/09 06:13:03;;;;;;;15.70;9.70;;;4.30;99.90;;;;;;5075256;28;20221;-63
2023/12/09 06:15:29;;;;;;;15.20;10.20;;;4.30;99.90;;;;;;5074830;28;20670;-62
2023/12/09 06:17:56;;;;;;;12.80;9.75;;;4.30;99.90;;;;;;5075318;28;20205;-63
2023/12/09 06:20:23;;;;;;;14.38;10.48;;;4.30;99.90;;;;;;5075047;28;20574;-63
2023/12/09 06:22:50;;;;;;;15.80;9.88;;;4.30;99.90;;;;;;5075336;28;20232;-62
2023/12/09 06:25:17;;;;;;;13.18;9.27;;;4.30;99.90;;;;;;5074901;28;20673;-63
2023/12/09 06:27:43;;;;;;;15.20;9.43;;;4.30;99.90;;;;;;5075686;28;20205;-62
2023/12/09 06:30:12;;;;;;;14.68;10.00;;;4.30;99.90;;;;;;5075430;28;20340;-63
2023/12/09 06:32:41;;;;;;;17.25;10.68;;;4.30;99.90;;;;;;5075128;28;20225;-62
2023/12/09 06:35:09;;;;;;;11.80;9.10;;;4.40;99.90;;;;;;5074871;28;20197;-63
2023/12/09 06:37:35;;;;;;;13.93;8.88;;;4.40;99.90;;;;;;5075520;28;20197;-63
2023/12/09 06:40:02;;;;;;;15.07;9.77;;;4.40;99.90;;;;;;5075833;28;20539;-63
2023/12/09 06:42:29;;;;;;;14.65;9.68;;;4.40;99.90;;;;;;5075966;28;20223;-63
2023/12/09 06:44:56;;;;;;;13.18;9.77;;;4.40;99.90;;;;;;5075110;28;20678;-62
2023/12/09 06:47:24;;;;;;;15.93;9.55;;;4.50;99.90;;;;;;5075417;28;20201;-63
2023/12/09 06:49:51;;;;;;;15.48;11.02;;;4.50;99.90;;;;;;5074984;28;20201;-63
2023/12/09 06:52:18;;;;;;;18.10;10.30;;;4.60;99.90;;;;;;5075151;28;20229;-62
2023/12/09 06:54:45;;;;;;;14.63;10.32;;;4.60;99.90;;;;;;5076127;28;20707;-63
2023/12/09 06:57:12;;;;;;;14.85;10.75;;;4.60;99.90;;;;;;5074964;28;20201;-63
2023/12/09 06:59:39;;;;;;;11.93;9.65;;;4.60;99.90;;;;;;5075538;28;20197;-63
2023/12/09 07:02:05;;;;;;;15.48;10.10;;;4.60;99.90;;;;;;5075966;28;20228;-63
2023/12/09 07:04:36;;;;;;;17.45;10.65;;;4.70;99.90;;;;;;5076117;28;20201;-62
2023/12/09 07:07:04;;;;;;;17.17;11.07;;;4.60;99.90;;;;;;5084916;28;20188;-63
2023/12/09 07:09:31;;;;;;;13.93;9.85;;;4.60;99.90;;;;;;5087299;28;20299;-63
2023/12/09 07:11:58;;;;;;;12.75;10.18;;;4.60;99.90;;;;;;5082276;28;20225;-63
2023/12/09 07:14:25;;;;;;;18.15;10.85;;;4.60;99.90;;;;;;5080860;28;20213;-63
2023/12/09 07:16:52;;;;;;;14.68;10.40;;;4.60;99.90;;;;;;5084908;28;20205;-63
2023/12/09 07:19:18;;;;;;;12.52;9.63;;;4.60;99.90;;;;;;5085612;28;20245;-63
2023/12/09 07:21:46;;;;;;;14.05;9.15;;;4.60;99.90;;;;;;5086468;28;20596;-64
2023/12/09 07:24:13;;;;;;;13.43;10.00;;;4.50;99.90;;;;;;5086570;28;20207;-63
2023/12/09 07:26:40;;;;;;;14.52;9.27;;;4.50;99.90;;;;;;5086484;28;20201;-64
2023/12/09 07:29:07;;;;;;;12.90;8.77;;;4.40;99.90;;;;;;5085197;28;20208;-64
2023/12/09 07:31:34;;;;;;;14.15;9.80;;;4.40;99.90;;;;;;5084334;28;20324;-63
2023/12/09 07:34:01;;;;;;;14.68;9.95;;;4.40;99.90;;;;;;5078237;28;20209;-62
2023/12/09 07:36:27;;;;;;;15.70;9.85;;;4.30;99.90;;;;;;5074433;28;20208;-64
2023/12/09 07:38:55;;;;;;;16.60;9.93;;;4.30;99.90;;;;;;5075508;28;20665;-63
2023/12/09 07:41:22;;;;;;;19.42;9.98;;;4.20;99.90;;;;;;5079904;28;20212;-63
2023/12/09 07:43:49;;;;;;;14.35;9.70;;;4.20;99.90;;;;;;5074785;28;20201;-63
2023/12/09 07:46:15;;;;;;;14.18;10.40;;;4.20;99.90;;;;;;5074974;28;20201;-61
2023/12/09 07:48:42;;;;;;;16.15;11.05;;;4.10;99.90;;;;;;5073854;28;20671;-62
2023/12/09 07:51:09;;;;;;;11.60;9.38;;;4.10;99.90;;;;;;5074044;28;20201;-65
2023/12/09 07:53:35;;;;;;;11.88;10.00;;;4.10;99.90;;;;;;5074099;28;20719;-62
2023/12/09 07:56:05;;;;;;;13.10;10.15;;;4.00;99.90;;;;;;5074132;28;20197;-63
2023/12/09 07:58:31;;;;;;;13.30;10.70;;;4.00;99.90;;;;;;5074326;28;20204;-63
2023/12/09 08:01:00;;;;;;;14.50;11.05;;;4.00;99.90;;;;;;5074403;28;20200;-63
2023/12/09 08:03:26;;;;;;;16.48;9.98;;;4.00;99.90;;;;;;5073692;28;20231;-62
2023/12/09 08:05:53;;;;;;;13.95;9.43;;;4.00;99.90;;;;;;5073778;28;20201;-61
2023/12/09 08:08:20;;;;;;;12.85;9.90;;;4.00;99.90;;;;;;5073953;28;20205;-63
2023/12/09 08:10:46;;;;;;;15.25;10.52;;;4.00;99.90;;;;;;5073950;28;20213;-63
2023/12/09 08:13:14;;;;;;;15.95;10.48;;;4.00;99.90;;;;;;5074694;28;20225;-63
2023/12/09 08:15:41;;;;;;;13.65;9.68;;;4.00;99.90;;;;;;5075437;28;20212;-62
2023/12/09 08:18:08;;;;;;;11.23;9.23;;;4.00;99.90;;;;;;5074569;28;20209;-62
2023/12/09 08:20:35;;;;;;;17.67;9.80;;;4.00;99.90;;;;;;5072804;28;20663;-62
2023/12/09 08:23:03;;;;;;;10.40;8.90;;;4.10;99.90;;;;;;5073414;28;20278;-63
2023/12/09 08:25:30;;;;;;;12.68;9.27;;;4.10;99.90;;;;;;5073489;28;20201;-63
2023/12/09 08:27:57;;;;;;;13.60;10.05;;;4.10;99.90;;;;;;5073580;28;20581;-63
2023/12/09 08:30:26;;;;;;;15.38;9.10;;;4.20;99.90;;;;;;5075480;28;20205;-62
2023/12/09 08:32:52;;;;;;;19.95;9.32;;;4.20;99.90;;;;;;5075674;28;20223;-63
2023/12/09 08:35:19;;;;;;;14.52;8.95;;;4.30;99.90;;;;;;5075138;28;20212;-63
2023/12/09 08:37:46;;;;;;;13.30;9.65;;;4.30;99.90;;;;;;5075187;28;20204;-64
2023/12/09 08:40:13;;;;;;;13.18;9.40;;;4.30;99.90;;;;;;5075741;28;20205;-63
2023/12/09 08:42:40;;;;;;;13.60;9.00;;;4.30;99.90;;;;;;5076310;28;20217;-63
2023/12/09 08:45:10;;;;;;;14.32;9.85;;;4.40;99.90;;;;;;5075662;28;20208;-63
2023/12/09 08:47:38;;;;;;;13.45;9.45;;;4.40;99.90;;;;;;5076456;28;20205;-62
2023/12/09 08:50:06;;;;;;;12.93;8.88;;;4.40;99.90;;;;;;5077718;28;20208;-63
2023/12/09 08:52:33;;;;;;;12.82;9.80;;;4.50;99.90;;;;;;5078029;28;20221;-63
2023/12/09 08:55:00;;;;;;;10.63;9.23;;;4.50;99.90;;;;;;5077970;28;20201;-63
2023/12/09 08:57:27;;;;;;;13.43;8.85;;;4.60;99.90;;;;;;5078743;28;20208;-62
2023/12/09 08:59:55;;;;;;;11.98;8.85;;;4.60;99.90;;;;;;5087396;28;20201;-63
2023/12/09 09:02:22;;;;;;;10.13;8.70;;;4.70;99.90;;;;;;5086082;28;20213;-63
2023/12/09 09:04:50;;;;;;;12.07;8.90;;;4.70;99.90;;;;;;5084696;28;20209;-63
2023/12/09 09:07:17;;;;;;;15.85;9.23;;;4.70;99.90;;;;;;5077856;28;20204;-62
2023/12/09 09:09:44;;;;;;;12.57;7.75;;;4.70;99.90;;;;;;5078968;28;20223;-62
2023/12/09 09:12:11;;;;;;;10.65;8.10;;;4.80;99.90;;;;;;5077642;28;20224;-63
2023/12/09 09:14:38;;;;;;;8.05;6.95;;;4.80;99.90;;;;;;5077418;28;20224;-62
2023/12/09 09:17:04;;;;;;;11.50;7.45;;;4.90;99.90;;;;;;5078019;28;20211;-62
2023/12/09 09:19:31;;;;;;;10.57;6.85;;;4.90;99.90;;;;;;5077246;28;20212;-63
2023/12/09 09:21:59;;;;;;;13.18;6.55;;;5.00;99.90;;;;;;5078538;28;20229;-63
2023/12/09 09:24:26;;;;;;;11.07;7.82;;;5.10;99.90;;;;;;5078169;28;20662;-64
2023/12/09 09:26:53;;;;;;;10.27;6.30;;;5.10;99.90;;;;;;5077438;28;20203;-62
2023/12/09 09:29:20;;;;;;;11.25;6.18;;;5.20;99.90;;;;;;5078007;28;20216;-62
2023/12/09 09:31:46;;;;;;;12.50;7.50;;;5.20;99.90;;;;;;5076421;28;20718;-62
2023/12/09 09:34:13;;;;;;;7.32;6.18;;;5.20;99.90;;;;;;5077198;28;20229;-63
2023/12/09 09:36:40;;;;;;;7.70;6.15;;;5.30;99.90;;;;;;5076593;28;20200;-63
2023/12/09 09:39:09;;;;;;;8.02;6.65;;;5.30;99.90;;;;;;5076443;28;20655;-64
2023/12/09 09:41:51;;;;;;;8.93;5.35;;;5.30;99.90;;;;;;5076796;28;20227;-63
2023/12/09 09:44:22;;;;;;;10.60;5.72;;;5.30;99.90;;;;;;5078267;28;20542;-63
2023/12/09 09:46:52;;;;;;;9.80;5.70;;;5.30;99.90;;;;;;5077962;28;20243;-64
2023/12/09 09:49:21;;;;;;;9.50;5.93;;;5.30;99.90;;;;;;5080018;28;20272;-64
2023/12/09 09:51:52;;;;;;;6.03;4.90;;;5.30;99.90;;;;;;5078690;28;20221;-64
2023/12/09 09:54:21;;;;;;;13.85;6.30;;;5.30;99.90;;;;;;5080723;28;20217;-63
2023/12/09 09:56:50;;;;;;;8.25;5.57;;;5.30;99.90;;;;;;5077801;28;20234;-64
2023/12/09 09:59:17;;;;;;;6.97;5.72;;;5.30;99.90;;;;;;5075591;28;20201;-64
2023/12/09 10:01:44;;;;;;;8.63;5.45;;;5.40;99.90;;;;;;5076026;28;20303;-64
2023/12/09 10:04:11;;;;;;;9.40;6.75;;;5.50;99.90;;;;;;5075795;28;20759;-63
2023/12/09 10:06:38;;;;;;;7.20;5.65;;;5.60;99.90;;;;;;5077503;28;20208;-64
2023/12/09 10:09:05;;;;;;;6.70;5.82;;;5.70;99.90;;;;;;5077458;28;20212;-63
2023/12/09 10:11:33;;;;;;;6.55;5.05;;;5.80;99.90;;;;;;5077072;28;20248;-63
2023/12/09 10:14:00;;;;;;;7.28;5.57;;;6.00;99.90;;;;;;5077377;28;20221;-63
2023/12/09 10:16:27;;;;;;;7.03;4.72;;;6.00;99.90;;;;;;5078928;28;20204;-64
2023/12/09 10:18:54;;;;;;;10.55;5.72;;;6.00;99.90;;;;;;5079678;28;20306;-62
2023/12/09 10:21:21;;;;;;;9.13;5.72;;;6.00;99.90;;;;;;5077383;28;20209;-64
2023/12/09 10:23:47;;;;;;;8.18;5.93;;;6.10;99.90;;;;;;5076913;28;20205;-63
2023/12/09 10:26:15;;;;;;;6.80;5.45;;;6.10;99.90;;;;;;5077200;28;20201;-64
2023/12/09 10:28:43;;;;;;;7.40;5.45;;;6.20;99.90;;;;;;5076522;28;20208;-64
2023/12/09 10:31:10;;;;;;;11.15;5.25;;;6.30;99.90;;;;;;5075785;28;20687;-63
2023/12/09 10:33:37;;;;;;;9.18;6.05;;;6.30;99.90;;;;;;5077282;28;20266;-62
2023/12/09 10:36:06;;;;;;;7.20;5.65;;;6.40;99.90;;;;;;5076583;28;20646;-62
2023/12/09 10:38:33;;;;;;;8.40;5.97;;;6.40;99.90;;;;;;5075911;28;20286;-64
2023/12/09 10:40:59;;;;;;;7.15;4.18;;;6.50;99.90;;;;;;5075622;28;20303;-63
2023/12/09 10:43:26;;;;;;;6.47;4.60;;;6.50;99.90;;;;;;5075488;28;20228;-63
2023/12/09 10:45:54;;;;;;;6.10;4.72;;;6.60;99.90;;;;;;5074954;28;20201;-63
2023/12/09 10:48:21;;;;;;;6.68;4.97;;;6.60;99.90;;;;;;5074894;28;20205;-63
2023/12/09 10:50:48;;;;;;;8.38;5.47;;;6.70;99.90;;;;;;5075498;28;20200;-64
2023/12/09 10:53:14;;;;;;;6.00;4.50;;;6.80;99.90;;;;;;5074657;28;20597;-63
2023/12/09 10:55:41;;;;;;;6.95;5.00;;;6.90;99.90;;;;;;5074729;28;20575;-63
2023/12/09 10:58:09;;;;;;;5.63;4.50;;;7.00;99.90;;;;;;5077032;28;20216;-63
2023/12/09 11:00:37;;;;;;;7.90;5.15;;;7.10;99.90;;;;;;5081552;28;20548;-63
2023/12/09 11:03:06;;;;;;;5.55;4.63;;;7.10;99.90;;;;;;5080022;28;20848;-63
2023/12/09 11:05:40;;;;;;;8.38;4.55;;;7.10;99.90;;;;;;5076222;28;20692;-63
2023/12/09 11:08:09;;;;;;;8.40;5.20;;;7.00;99.90;;;;;;5076224;28;20198;-63
2023/12/09 11:10:36;;;;;;;6.72;4.57;;;7.10;99.90;;;;;;5076287;28;20225;-61
2023/12/09 11:13:03;;;;;;;6.47;4.72;;;7.10;99.90;;;;;;5075634;28;20225;-63
2023/12/09 11:15:32;;;;;;;7.65;4.45;;;7.10;99.90;;;;;;5077500;28;20211;-66
2023/12/09 11:18:08;;;;;;;7.50;5.00;;;7.10;99.90;;;;;;5076048;28;20670;-63
2023/12/09 11:20:38;;;;;;;6.00;4.55;;;7.10;99.90;;;;;;5075242;28;20185;-63
2023/12/09 11:23:05;;;;;;;7.15;4.95;;;7.10;99.90;;;;;;5075121;28;20252;-63
2023/12/09 11:25:32;;;;;;;7.15;5.32;;;7.10;99.90;;;;;;5075394;28;20617;-64
2023/12/09 11:27:59;;;;;;;5.22;4.28;;;7.10;99.90;;;;;;5074355;28;20598;-63
2023/12/09 11:30:31;;;;;;;10.63;5.78;;;7.10;99.90;;;;;;5075249;28;20284;-62
2023/12/09 11:32:57;;;;;;;7.75;5.32;;;7.10;99.90;;;;;;5074125;28;20260;-63
2023/12/09 11:35:27;;;;;;;5.30;4.00;;;7.00;99.90;;;;;;5074821;28;20216;-64
2023/12/09 11:37:55;;;;;;;8.95;5.03;;;7.00;99.90;;;;;;5074710;28;20284;-64
2023/12/09 11:40:22;;;;;;;7.95;6.20;;;7.10;99.90;;;;;;5073552;28;20623;-64
2023/12/09 11:42:50;;;;;;;5.70;5.07;;;7.10;99.90;;;;;;5073980;28;20221;-64
2023/12/09 11:45:17;;;;;;;10.52;6.10;;;7.20;99.90;;;;;;5074300;28;20196;-64
2023/12/09 11:47:45;;;;;;;8.48;5.82;;;7.20;99.90;;;;;;5074522;28;20205;-64
2023/12/09 11:50:15;;;;;;;9.48;6.30;;;7.30;99.90;;;;;;5074465;28;20212;-64
2023/12/09 11:52:44;;;;;;;6.55;5.47;;;7.30;99.90;;;;;;5074266;28;20698;-63
2023/12/09 11:55:11;;;;;;;7.07;5.75;;;7.30;99.90;;;;;;5074697;28;20209;-63
2023/12/09 11:57:40;;;;;;;8.10;6.18;;;7.30;99.90;;;;;;5075317;28;20201;-65
2023/12/09 12:00:11;;;;;;;9.15;6.97;;;7.30;99.90;;;;;;5074721;28;20258;-63
2023/12/09 12:02:38;;;;;;;11.77;9.10;;;7.30;99.90;;;;;;5074016;28;20225;-64
2023/12/09 12:05:06;;;;;;;15.02;10.70;;;7.30;99.90;;;;;;5073901;28;20205;-63
2023/12/09 12:07:34;;;;;;;18.80;13.20;;;7.20;99.90;;;;;;5074371;28;20201;-63
2023/12/09 12:10:02;;;;;;;15.10;10.13;;;7.20;99.90;;;;;;5073484;28;20575;-63
2023/12/09 12:12:29;;;;;;;24.60;16.67;;;7.20;99.90;;;;;;5074141;28;20323;-62
2023/12/09 12:14:56;;;;;;;14.38;10.98;;;7.20;99.90;;;;;;5074835;28;20217;-64
2023/12/09 12:17:23;;;;;;;14.65;11.73;;;7.20;99.90;;;;;;5077964;28;20675;-65
2023/12/09 12:19:50;;;;;;;10.50;7.80;;;7.20;99.90;;;;;;5080477;28;20209;-63
2023/12/09 12:22:18;;;;;;;12.30;7.18;;;7.10;99.90;;;;;;5081923;28;20256;-64
2023/12/09 12:24:46;;;;;;;8.70;6.55;;;7.10;99.90;;;;;;5082287;28;20197;-64
2023/12/09 12:27:14;;;;;;;8.20;6.75;;;7.10;99.90;;;;;;5080694;28;20271;-63
2023/12/09 12:29:42;;;;;;;9.25;6.70;;;7.10;99.90;;;;;;5082807;28;20204;-63
2023/12/09 12:32:14;;;;;;;8.88;6.72;;;7.10;99.90;;;;;;5081083;28;20403;-64
2023/12/09 12:34:44;;;;;;;8.30;6.15;;;7.10;99.90;;;;;;5089854;28;20228;-64
2023/12/09 12:37:11;;;;;;;10.18;6.45;;;7.10;99.90;;;;;;5091297;28;20232;-63
2023/12/09 12:39:38;;;;;;;7.78;5.93;;;7.10;99.90;;;;;;5087078;28;20204;-63
2023/12/09 12:42:06;;;;;;;8.80;5.70;;;7.10;99.90;;;;;;5089284;28;20241;-64
2023/12/09 12:44:34;;;;;;;8.43;5.68;;;7.10;99.90;;;;;;5085223;28;20197;-63
2023/12/09 12:47:01;;;;;;;7.95;5.82;;;7.10;99.90;;;;;;5080832;28;20635;-63